sensor_id;sensor_type;location;lat;lon;timestamp;temperature;humidity
64855;DHT22;51321;50.428;8.378;2024-01-07T00:00:45;5.20;99.90
64855;DHT22;51321;50.428;8.378;2024-01-07T00:03:25;5.20;99.90
64855;DHT22;51321;50.428;8.378;2024-01-07T00:06:06;5.20;99.90
64855;DHT22;51321;50.428;8.378;2024-01-07T00:08:47;5.20;99.90
64855;DHT22;51321;50.428;8.378;2024-01-07T00:11:28;5.20;99.90
64855;DHT22;51321;50.428;8.378;2024-01-07T00:14:11;5.20;99.90
64855;DHT22;51321;50.428;8.378;2024-01-07T00:16:53;5.20;99.90
64855;DHT22;51321;50.428;8.378;2024-01-07T00:19:33;5.20;99.90
64855;DHT22;51321;50.428;8.378;2024-01-07T00:22:15;5.20;99.90
64855;DHT22;51321;50.428;8.378;2024-01-07T00:24:56;5.20;99.90
64855;DHT22;51321;50.428;8.378;2024-01-07T00:27:37;5.10;99.90
64855;DHT22;51321;50.428;8.378;2024-01-07T00:30:20;5.10;99.90
64855;DHT22;51321;50.428;8.378;2024-01-07T00:33:03;5.10;99.90
64855;DHT22;51321;50.428;8.378;2024-01-07T00:35:46;5.20;99.90
64855;DHT22;51321;50.428;8.378;2024-01-07T00:38:27;5.20;99.90
64855;DHT22;51321;50.428;8.378;2024-01-07T00:41:08;5.20;99.90
64855;DHT22;51321;50.428;8.378;2024-01-07T00:43:49;5.20;99.90
64855;DHT22;51321;50.428;8.378;2024-01-07T00:46:31;5.20;99.90
64855;DHT22;51321;50.428;8.378;2024-01-07T00:49:15;5.20;99.90
64855;DHT22;51321;50.428;8.378;2024-01-07T00:51:58;5.20;99.90
64855;DHT22;51321;50.428;8.378;2024-01-07T00:54:40;5.20;99.90
64855;DHT22;51321;50.428;8.378;2024-01-07T00:57:20;5.20;99.90
64855;DHT22;51321;50.428;8.378;2024-01-07T01:00:05;5.10;99.90
64855;DHT22;51321;50.428;8.378;2024-01-07T01:02:48;5.10;99.90
64855;DHT22;51321;50.428;8.378;2024-01-07T01:05:31;5.10;99.90
64855;DHT22;51321;50.428;8.378;2024-01-07T01:08:11;5.10;99.90
64855;DHT22;51321;50.428;8.378;2024-01-07T01:10:53;5.10;99.90
64855;DHT22;51321;50.428;8.378;2024-01-07T01:13:35;5.10;99.90
64855;DHT22;51321;50.428;8.378;2024-01-07T01:16:16;5.10;99.90
64855;DHT22;51321;50.428;8.378;2024-01-07T01:18:57;5.10;99.90
64855;DHT22;51321;50.428;8.378;2024-01-07T01:21:39;5.20;99.90
64855;DHT22;51321;50.428;8.378;2024-01-07T01:24:20;5.10;99.90
64855;DHT22;51321;50.428;8.378;2024-01-07T01:27:01;5.10;99.90
64855;DHT22;51321;50.428;8.378;2024-01-07T01:29:42;5.10;99.90
64855;DHT22;51321;50.428;8.378;2024-01-07T01:32:24;5.10;99.90
64855;DHT22;51321;50.428;8.378;2024-01-07T01:35:07;5.20;99.90
64855;DHT22;51321;50.428;8.378;2024-01-07T01:37:51;5.10;99.90
64855;DHT22;51321;50.428;8.378;2024-01-07T01:40:33;5.10;99.90
64855;DHT22;51321;50.428;8.378;2024-01-07T01:43:22;5.20;99.90
64855;DHT22;51321;50.428;8.378;2024-01-07T01:46:03;5.10;99.90
64855;DHT22;51321;50.428;8.378;2024-01-07T01:48:44;5.10;99.90
64855;DHT22;51321;50.428;8.378;2024-01-07T01:51:26;5.10;99.90
64855;DHT22;51321;50.428;8.378;2024-01-07T01:54:08;5.10;99.90
64855;DHT22;51321;50.428;8.378;2024-01-07T01:56:49;5.10;99.90
64855;DHT22;51321;50.428;8.378;2024-01-07T01:59:31;5.10;99.90
64855;DHT22;51321;50.428;8.378;2024-01-07T02:02:14;5.10;99.90
64855;DHT22;51321;50.428;8.378;2024-01-07T02:04:54;5.10;99.90
64855;DHT22;51321;50.428;8.378;2024-01-07T02:07:34;5.10;99.90
64855;DHT22;51321;50.428;8.378;2024-01-07T02:10:17;5.10;99.90
64855;DHT22;51321;50.428;8.378;2024-01-07T02:12:57;5.10;99.90
64855;DHT22;51321;50.428;8.378;2024-01-07T02:15:39;5.00;99.90
64855;DHT22;51321;50.428;8.378;2024-01-07T02:18:20;5.10;99.90
64855;DHT22;51321;50.428;8.378;2024-01-07T02:21:01;5.10;99.90
64855;DHT22;51321;50.428;8.378;2024-01-07T02:23:42;5.10;99.90
64855;DHT22;51321;50.428;8.378;2024-01-07T02:26:26;5.10;99.90
64855;DHT22;51321;50.428;8.378;2024-01-07T02:29:07;5.10;99.90
64855;DHT22;51321;50.428;8.378;2024-01-07T02:31:49;5.00;99.90
64855;DHT22;51321;50.428;8.378;2024-01-07T02:34:30;5.00;99.90
64855;DHT22;51321;50.428;8.378;2024-01-07T02:37:11;4.90;99.90
64855;DHT22;51321;50.428;8.378;2024-01-07T02:39:52;5.00;99.90
64855;DHT22;51321;50.428;8.378;2024-01-07T02:42:34;4.90;99.90
64855;DHT22;51321;50.428;8.378;2024-01-07T02:45:15;4.90;99.90
64855;DHT22;51321;50.428;8.378;2024-01-07T02:48:00;4.90;99.90
64855;DHT22;51321;50.428;8.378;2024-01-07T02:50:46;4.80;99.90
64855;DHT22;51321;50.428;8.378;2024-01-07T02:53:32;4.80;99.90
64855;DHT22;51321;50.428;8.378;2024-01-07T02:56:12;4.70;99.90
64855;DHT22;51321;50.428;8.378;2024-01-07T02:58:55;4.60;99.90
64855;DHT22;51321;50.428;8.378;2024-01-07T03:01:36;4.50;99.90
64855;DHT22;51321;50.428;8.378;2024-01-07T03:04:19;4.50;99.90
64855;DHT22;51321;50.428;8.378;2024-01-07T03:07:00;4.50;99.90
64855;DHT22;51321;50.428;8.378;2024-01-07T03:09:40;4.60;99.90
64855;DHT22;51321;50.428;8.378;2024-01-07T03:12:24;4.50;99.90
64855;DHT22;51321;50.428;8.378;2024-01-07T03:15:15;4.60;99.90
64855;DHT22;51321;50.428;8.378;2024-01-07T03:17:57;4.60;99.90
64855;DHT22;51321;50.428;8.378;2024-01-07T03:20:38;4.60;99.90
64855;DHT22;51321;50.428;8.378;2024-01-07T03:23:20;4.60;99.90
64855;DHT22;51321;50.428;8.378;2024-01-07T03:26:02;4.60;99.90
64855;DHT22;51321;50.428;8.378;2024-01-07T03:28:43;4.60;99.90
64855;DHT22;51321;50.428;8.378;2024-01-07T03:31:25;4.70;99.90
64855;DHT22;51321;50.428;8.378;2024-01-07T03:34:05;4.60;99.90
64855;DHT22;51321;50.428;8.378;2024-01-07T03:36:46;4.70;99.90
64855;DHT22;51321;50.428;8.378;2024-01-07T03:39:32;4.70;99.90
64855;DHT22;51321;50.428;8.378;2024-01-07T03:42:13;4.60;99.90
64855;DHT22;51321;50.428;8.378;2024-01-07T03:44:54;4.60;99.90
64855;DHT22;51321;50.428;8.378;2024-01-07T03:47:42;4.70;99.90
64855;DHT22;51321;50.428;8.378;2024-01-07T03:50:24;4.60;99.90
64855;DHT22;51321;50.428;8.378;2024-01-07T03:53:04;4.50;99.90
64855;DHT22;51321;50.428;8.378;2024-01-07T03:55:45;4.30;99.90
64855;DHT22;51321;50.428;8.378;2024-01-07T03:58:26;4.30;99.90
64855;DHT22;51321;50.428;8.378;2024-01-07T04:01:07;4.20;99.90
64855;DHT22;51321;50.428;8.378;2024-01-07T04:03:49;4.20;99.90
64855;DHT22;51321;50.428;8.378;2024-01-07T04:06:30;4.20;99.90
64855;DHT22;51321;50.428;8.378;2024-01-07T04:09:10;4.30;99.90
64855;DHT22;51321;50.428;8.378;2024-01-07T04:11:51;4.30;99.90
64855;DHT22;51321;50.428;8.378;2024-01-07T04:14:33;4.40;99.90
64855;DHT22;51321;50.428;8.378;2024-01-07T04:17:14;4.50;99.90
64855;DHT22;51321;50.428;8.378;2024-01-07T04:19:56;4.40;99.90
64855;DHT22;51321;50.428;8.378;2024-01-07T04:22:37;4.40;99.90
64855;DHT22;51321;50.428;8.378;2024-01-07T04:25:17;4.40;99.90
64855;DHT22;51321;50.428;8.378;2024-01-07T04:27:58;4.40;99.90
64855;DHT22;51321;50.428;8.378;2024-01-07T04:30:41;4.40;99.90
64855;DHT22;51321;50.428;8.378;2024-01-07T04:33:22;4.40;99.90
64855;DHT22;51321;50.428;8.378;2024-01-07T04:36:05;4.40;99.90
64855;DHT22;51321;50.428;8.378;2024-01-07T04:38:46;4.30;99.90
64855;DHT22;51321;50.428;8.378;2024-01-07T04:41:28;4.30;99.90
64855;DHT22;51321;50.428;8.378;2024-01-07T04:44:09;4.30;99.90
64855;DHT22;51321;50.428;8.378;2024-01-07T04:46:52;4.20;99.90
64855;DHT22;51321;50.428;8.378;2024-01-07T04:49:33;4.20;99.90
64855;DHT22;51321;50.428;8.378;2024-01-07T04:52:15;4.10;99.90
64855;DHT22;51321;50.428;8.378;2024-01-07T04:54:57;4.10;99.90
64855;DHT22;51321;50.428;8.378;2024-01-07T04:57:38;4.10;99.90
64855;DHT22;51321;50.428;8.378;2024-01-07T05:00:20;4.20;99.90
64855;DHT22;51321;50.428;8.378;2024-01-07T05:03:01;4.20;99.90
64855;DHT22;51321;50.428;8.378;2024-01-07T05:05:42;4.20;99.90
64855;DHT22;51321;50.428;8.378;2024-01-07T05:08:26;4.20;99.90
64855;DHT22;51321;50.428;8.378;2024-01-07T05:11:08;4.20;99.90
64855;DHT22;51321;50.428;8.378;2024-01-07T05:13:50;4.20;99.90
64855;DHT22;51321;50.428;8.378;2024-01-07T05:16:31;4.20;99.90
64855;DHT22;51321;50.428;8.378;2024-01-07T05:19:12;4.10;99.90
64855;DHT22;51321;50.428;8.378;2024-01-07T05:21:54;4.00;99.90
64855;DHT22;51321;50.428;8.378;2024-01-07T05:24:38;4.00;99.90
64855;DHT22;51321;50.428;8.378;2024-01-07T05:27:19;4.00;99.90
64855;DHT22;51321;50.428;8.378;2024-01-07T05:29:59;3.90;99.90
64855;DHT22;51321;50.428;8.378;2024-01-07T05:32:40;3.80;99.90
64855;DHT22;51321;50.428;8.378;2024-01-07T05:35:21;3.80;99.90
64855;DHT22;51321;50.428;8.378;2024-01-07T05:38:04;3.80;99.90
64855;DHT22;51321;50.428;8.378;2024-01-07T05:40:46;3.70;99.90
64855;DHT22;51321;50.428;8.378;2024-01-07T05:43:27;3.70;99.90
64855;DHT22;51321;50.428;8.378;2024-01-07T05:46:07;3.70;99.90
64855;DHT22;51321;50.428;8.378;2024-01-07T05:48:48;3.80;99.90
64855;DHT22;51321;50.428;8.378;2024-01-07T05:51:30;3.70;99.90
64855;DHT22;51321;50.428;8.378;2024-01-07T05:54:11;3.80;99.90
64855;DHT22;51321;50.428;8.378;2024-01-07T05:56:53;3.70;99.90
64855;DHT22;51321;50.428;8.378;2024-01-07T05:59:34;3.70;99.90
64855;DHT22;51321;50.428;8.378;2024-01-07T06:02:17;3.70;99.90
64855;DHT22;51321;50.428;8.378;2024-01-07T06:04:57;3.70;99.90
64855;DHT22;51321;50.428;8.378;2024-01-07T06:07:38;3.70;99.90
64855;DHT22;51321;50.428;8.378;2024-01-07T06:10:19;3.70;99.90
64855;DHT22;51321;50.428;8.378;2024-01-07T06:13:03;3.70;99.90
64855;DHT22;51321;50.428;8.378;2024-01-07T06:15:44;3.70;99.90
64855;DHT22;51321;50.428;8.378;2024-01-07T06:18:24;3.60;99.90
64855;DHT22;51321;50.428;8.378;2024-01-07T06:21:05;3.50;99.90
64855;DHT22;51321;50.428;8.378;2024-01-07T06:23:46;3.50;99.90
64855;DHT22;51321;50.428;8.378;2024-01-07T06:26:27;3.50;99.90
64855;DHT22;51321;50.428;8.378;2024-01-07T06:29:09;3.40;99.90
64855;DHT22;51321;50.428;8.378;2024-01-07T06:31:50;3.40;99.90
64855;DHT22;51321;50.428;8.378;2024-01-07T06:34:31;3.40;99.90
64855;DHT22;51321;50.428;8.378;2024-01-07T06:37:13;3.40;99.90
64855;DHT22;51321;50.428;8.378;2024-01-07T06:39:55;3.40;99.90
64855;DHT22;51321;50.428;8.378;2024-01-07T06:42:37;3.40;99.90
64855;DHT22;51321;50.428;8.378;2024-01-07T06:45:20;3.50;99.90
64855;DHT22;51321;50.428;8.378;2024-01-07T06:48:01;3.40;99.90
64855;DHT22;51321;50.428;8.378;2024-01-07T06:50:43;3.40;99.90
64855;DHT22;51321;50.428;8.378;2024-01-07T06:53:24;3.50;99.90
64855;DHT22;51321;50.428;8.378;2024-01-07T06:56:06;3.50;99.90
64855;DHT22;51321;50.428;8.378;2024-01-07T06:58:48;3.60;99.90
64855;DHT22;51321;50.428;8.378;2024-01-07T07:01:33;3.70;99.90
64855;DHT22;51321;50.428;8.378;2024-01-07T07:04:13;3.60;99.90
64855;DHT22;51321;50.428;8.378;2024-01-07T07:06:56;3.60;99.90
64855;DHT22;51321;50.428;8.378;2024-01-07T07:09:38;3.70;99.90
64855;DHT22;51321;50.428;8.378;2024-01-07T07:12:19;3.80;99.90
64855;DHT22;51321;50.428;8.378;2024-01-07T07:15:00;3.80;99.90
64855;DHT22;51321;50.428;8.378;2024-01-07T07:17:45;3.70;99.90
64855;DHT22;51321;50.428;8.378;2024-01-07T07:20:26;3.60;99.90
64855;DHT22;51321;50.428;8.378;2024-01-07T07:23:08;3.60;99.90
64855;DHT22;51321;50.428;8.378;2024-01-07T07:25:49;3.60;99.90
64855;DHT22;51321;50.428;8.378;2024-01-07T07:28:30;3.60;99.90
64855;DHT22;51321;50.428;8.378;2024-01-07T07:31:11;3.70;99.90
64855;DHT22;51321;50.428;8.378;2024-01-07T07:33:54;3.60;99.90
64855;DHT22;51321;50.428;8.378;2024-01-07T07:36:36;3.60;99.90
64855;DHT22;51321;50.428;8.378;2024-01-07T07:39:16;3.60;99.90
64855;DHT22;51321;50.428;8.378;2024-01-07T07:41:58;3.60;99.90
64855;DHT22;51321;50.428;8.378;2024-01-07T07:44:40;3.60;99.90
64855;DHT22;51321;50.428;8.378;2024-01-07T07:47:21;3.50;99.90
64855;DHT22;51321;50.428;8.378;2024-01-07T07:50:04;3.30;99.90
64855;DHT22;51321;50.428;8.378;2024-01-07T07:52:45;3.30;99.90
64855;DHT22;51321;50.428;8.378;2024-01-07T07:55:29;3.20;99.90
64855;DHT22;51321;50.428;8.378;2024-01-07T07:58:12;3.30;99.90
64855;DHT22;51321;50.428;8.378;2024-01-07T08:00:56;3.30;99.90
64855;DHT22;51321;50.428;8.378;2024-01-07T08:03:37;3.20;99.90
64855;DHT22;51321;50.428;8.378;2024-01-07T08:06:19;3.10;99.90
64855;DHT22;51321;50.428;8.378;2024-01-07T08:09:00;3.10;99.90
64855;DHT22;51321;50.428;8.378;2024-01-07T08:11:41;3.10;99.90
64855;DHT22;51321;50.428;8.378;2024-01-07T08:14:21;3.20;99.90
64855;DHT22;51321;50.428;8.378;2024-01-07T08:17:04;3.10;99.90
64855;DHT22;51321;50.428;8.378;2024-01-07T08:19:44;3.10;99.90
64855;DHT22;51321;50.428;8.378;2024-01-07T08:22:27;3.10;99.90
64855;DHT22;51321;50.428;8.378;2024-01-07T08:25:09;3.10;99.90
64855;DHT22;51321;50.428;8.378;2024-01-07T08:27:52;3.00;99.90
64855;DHT22;51321;50.428;8.378;2024-01-07T08:30:33;3.00;99.90
64855;DHT22;51321;50.428;8.378;2024-01-07T08:33:13;3.00;99.90
64855;DHT22;51321;50.428;8.378;2024-01-07T08:35:56;3.00;99.90
64855;DHT22;51321;50.428;8.378;2024-01-07T08:38:38;3.10;99.90
64855;DHT22;51321;50.428;8.378;2024-01-07T08:41:20;3.20;99.90
64855;DHT22;51321;50.428;8.378;2024-01-07T08:44:02;3.10;99.90
64855;DHT22;51321;50.428;8.378;2024-01-07T08:46:45;3.20;99.90
64855;DHT22;51321;50.428;8.378;2024-01-07T08:49:27;3.20;99.90
64855;DHT22;51321;50.428;8.378;2024-01-07T08:52:08;3.20;99.90
64855;DHT22;51321;50.428;8.378;2024-01-07T08:54:49;3.20;99.90
64855;DHT22;51321;50.428;8.378;2024-01-07T08:57:33;3.10;99.90
64855;DHT22;51321;50.428;8.378;2024-01-07T09:00:15;3.00;99.90
64855;DHT22;51321;50.428;8.378;2024-01-07T09:02:56;2.90;99.90
64855;DHT22;51321;50.428;8.378;2024-01-07T09:05:37;2.90;99.90
64855;DHT22;51321;50.428;8.378;2024-01-07T09:08:17;2.90;99.90
64855;DHT22;51321;50.428;8.378;2024-01-07T09:11:04;2.90;99.90
64855;DHT22;51321;50.428;8.378;2024-01-07T09:13:45;2.80;99.90
64855;DHT22;51321;50.428;8.378;2024-01-07T09:16:27;2.80;99.90
64855;DHT22;51321;50.428;8.378;2024-01-07T09:19:08;2.90;99.90
64855;DHT22;51321;50.428;8.378;2024-01-07T09:21:49;2.90;99.90
64855;DHT22;51321;50.428;8.378;2024-01-07T09:24:30;2.90;99.90
64855;DHT22;51321;50.428;8.378;2024-01-07T09:27:13;2.80;99.90
64855;DHT22;51321;50.428;8.378;2024-01-07T09:29:53;2.80;99.90
64855;DHT22;51321;50.428;8.378;2024-01-07T09:32:34;2.80;99.90
64855;DHT22;51321;50.428;8.378;2024-01-07T09:35:16;2.80;99.90
64855;DHT22;51321;50.428;8.378;2024-01-07T09:37:58;2.70;99.90
64855;DHT22;51321;50.428;8.378;2024-01-07T09:40:40;2.70;99.90
64855;DHT22;51321;50.428;8.378;2024-01-07T09:43:23;2.70;99.90
64855;DHT22;51321;50.428;8.378;2024-01-07T09:46:04;2.60;99.90
64855;DHT22;51321;50.428;8.378;2024-01-07T09:48:46;2.60;99.90
64855;DHT22;51321;50.428;8.378;2024-01-07T09:51:29;2.70;99.90
64855;DHT22;51321;50.428;8.378;2024-01-07T09:54:15;2.70;99.90
64855;DHT22;51321;50.428;8.378;2024-01-07T09:57:01;2.60;99.90
64855;DHT22;51321;50.428;8.378;2024-01-07T09:59:45;2.60;99.90
64855;DHT22;51321;50.428;8.378;2024-01-07T10:02:26;2.50;99.90
64855;DHT22;51321;50.428;8.378;2024-01-07T10:05:07;2.50;99.90
64855;DHT22;51321;50.428;8.378;2024-01-07T10:07:48;2.60;99.90
64855;DHT22;51321;50.428;8.378;2024-01-07T10:10:29;2.60;99.90
64855;DHT22;51321;50.428;8.378;2024-01-07T10:13:10;2.50;99.90
64855;DHT22;51321;50.428;8.378;2024-01-07T10:15:54;2.50;99.90
64855;DHT22;51321;50.428;8.378;2024-01-07T10:18:35;2.50;99.90
64855;DHT22;51321;50.428;8.378;2024-01-07T10:21:15;2.50;99.90
64855;DHT22;51321;50.428;8.378;2024-01-07T10:24:07;2.50;99.90
64855;DHT22;51321;50.428;8.378;2024-01-07T10:26:49;2.40;99.90
64855;DHT22;51321;50.428;8.378;2024-01-07T10:29:30;2.50;99.90
64855;DHT22;51321;50.428;8.378;2024-01-07T10:32:12;2.30;99.90
64855;DHT22;51321;50.428;8.378;2024-01-07T10:35:00;2.30;99.90
64855;DHT22;51321;50.428;8.378;2024-01-07T10:37:42;2.30;99.90
64855;DHT22;51321;50.428;8.378;2024-01-07T10:40:26;2.40;99.90
64855;DHT22;51321;50.428;8.378;2024-01-07T10:43:09;2.30;99.90
64855;DHT22;51321;50.428;8.378;2024-01-07T10:45:50;2.30;99.90
64855;DHT22;51321;50.428;8.378;2024-01-07T10:48:37;2.40;99.90
64855;DHT22;51321;50.428;8.378;2024-01-07T10:51:21;2.50;99.90
64855;DHT22;51321;50.428;8.378;2024-01-07T10:54:06;2.50;99.90
64855;DHT22;51321;50.428;8.378;2024-01-07T10:56:49;2.40;99.90
64855;DHT22;51321;50.428;8.378;2024-01-07T10:59:32;2.30;99.90
64855;DHT22;51321;50.428;8.378;2024-01-07T11:02:14;2.30;99.90
64855;DHT22;51321;50.428;8.378;2024-01-07T11:05:03;2.30;99.90
64855;DHT22;51321;50.428;8.378;2024-01-07T11:07:49;2.30;99.90
64855;DHT22;51321;50.428;8.378;2024-01-07T11:10:38;2.30;99.90
64855;DHT22;51321;50.428;8.378;2024-01-07T11:13:32;2.20;99.90
64855;DHT22;51321;50.428;8.378;2024-01-07T11:16:15;2.20;99.90
64855;DHT22;51321;50.428;8.378;2024-01-07T11:19:20;2.20;99.90
64855;DHT22;51321;50.428;8.378;2024-01-07T11:22:22;2.30;99.90
64855;DHT22;51321;50.428;8.378;2024-01-07T11:25:27;2.20;99.90
64855;DHT22;51321;50.428;8.378;2024-01-07T11:28:08;2.30;99.90
64855;DHT22;51321;50.428;8.378;2024-01-07T11:30:54;2.30;99.90
64855;DHT22;51321;50.428;8.378;2024-01-07T11:33:36;2.30;99.90
64855;DHT22;51321;50.428;8.378;2024-01-07T11:36:19;2.50;99.90
64855;DHT22;51321;50.428;8.378;2024-01-07T11:39:01;2.40;99.90
64855;DHT22;51321;50.428;8.378;2024-01-07T11:41:43;2.30;99.90
64855;DHT22;51321;50.428;8.378;2024-01-07T11:44:26;2.30;99.90
64855;DHT22;51321;50.428;8.378;2024-01-07T11:47:07;2.20;99.90
64855;DHT22;51321;50.428;8.378;2024-01-07T11:49:48;2.10;99.90
64855;DHT22;51321;50.428;8.378;2024-01-07T11:52:33;2.00;99.90
64855;DHT22;51321;50.428;8.378;2024-01-07T11:55:17;2.10;99.90
64855;DHT22;51321;50.428;8.378;2024-01-07T11:58:01;2.20;99.90
64855;DHT22;51321;50.428;8.378;2024-01-07T12:00:42;2.20;99.90
64855;DHT22;51321;50.428;8.378;2024-01-07T12:03:26;2.20;99.90
64855;DHT22;51321;50.428;8.378;2024-01-07T12:06:07;2.30;99.90
64855;DHT22;51321;50.428;8.378;2024-01-07T12:08:50;2.20;99.90
64855;DHT22;51321;50.428;8.378;2024-01-07T12:11:34;2.20;99.90
64855;DHT22;51321;50.428;8.378;2024-01-07T12:14:15;2.30;99.90
64855;DHT22;51321;50.428;8.378;2024-01-07T12:16:56;2.20;99.90
64855;DHT22;51321;50.428;8.378;2024-01-07T12:19:36;2.00;99.90
64855;DHT22;51321;50.428;8.378;2024-01-07T12:22:18;1.90;99.90
64855;DHT22;51321;50.428;8.378;2024-01-07T12:25:02;1.80;99.90
64855;DHT22;51321;50.428;8.378;2024-01-07T12:27:45;1.80;99.90
64855;DHT22;51321;50.428;8.378;2024-01-07T12:30:27;1.70;99.90
64855;DHT22;51321;50.428;8.378;2024-01-07T12:33:10;1.80;99.90
64855;DHT22;51321;50.428;8.378;2024-01-07T12:35:50;1.80;99.90
64855;DHT22;51321;50.428;8.378;2024-01-07T12:38:32;1.80;99.90
64855;DHT22;51321;50.428;8.378;2024-01-07T12:41:13;1.80;99.90
64855;DHT22;51321;50.428;8.378;2024-01-07T12:43:55;1.80;99.90
64855;DHT22;51321;50.428;8.378;2024-01-07T12:46:38;1.90;99.90
64855;DHT22;51321;50.428;8.378;2024-01-07T12:49:18;1.80;99.90
64855;DHT22;51321;50.428;8.378;2024-01-07T12:52:01;1.80;99.90
64855;DHT22;51321;50.428;8.378;2024-01-07T12:54:43;1.80;99.90
64855;DHT22;51321;50.428;8.378;2024-01-07T12:57:24;1.80;99.90
64855;DHT22;51321;50.428;8.378;2024-01-07T13:00:08;1.70;99.90
64855;DHT22;51321;50.428;8.378;2024-01-07T13:02:52;1.70;99.90
64855;DHT22;51321;50.428;8.378;2024-01-07T13:05:34;1.50;99.90
64855;DHT22;51321;50.428;8.378;2024-01-07T13:08:16;1.60;99.90
64855;DHT22;51321;50.428;8.378;2024-01-07T13:10:59;1.60;99.90
64855;DHT22;51321;50.428;8.378;2024-01-07T13:13:41;1.50;99.90
64855;DHT22;51321;50.428;8.378;2024-01-07T13:16:25;1.50;99.90
64855;DHT22;51321;50.428;8.378;2024-01-07T13:19:08;1.50;99.90
64855;DHT22;51321;50.428;8.378;2024-01-07T13:21:50;1.40;99.90
64855;DHT22;51321;50.428;8.378;2024-01-07T13:24:31;1.40;99.90
64855;DHT22;51321;50.428;8.378;2024-01-07T13:27:16;1.30;99.90
64855;DHT22;51321;50.428;8.378;2024-01-07T13:29:59;1.30;99.90
64855;DHT22;51321;50.428;8.378;2024-01-07T13:32:49;1.30;99.90
64855;DHT22;51321;50.428;8.378;2024-01-07T13:35:32;1.10;99.90
64855;DHT22;51321;50.428;8.378;2024-01-07T13:38:13;1.20;99.90
64855;DHT22;51321;50.428;8.378;2024-01-07T13:40:57;1.00;99.90
64855;DHT22;51321;50.428;8.378;2024-01-07T13:43:39;1.00;99.90
64855;DHT22;51321;50.428;8.378;2024-01-07T13:46:20;1.00;99.90
64855;DHT22;51321;50.428;8.378;2024-01-07T13:49:07;1.00;99.90
64855;DHT22;51321;50.428;8.378;2024-01-07T13:51:48;0.90;99.90
64855;DHT22;51321;50.428;8.378;2024-01-07T13:54:29;0.90;99.90
64855;DHT22;51321;50.428;8.378;2024-01-07T13:57:14;0.80;99.90
64855;DHT22;51321;50.428;8.378;2024-01-07T13:59:58;0.80;99.90
64855;DHT22;51321;50.428;8.378;2024-01-07T14:02:38;0.80;99.90
64855;DHT22;51321;50.428;8.378;2024-01-07T14:05:23;0.70;99.90
64855;DHT22;51321;50.428;8.378;2024-01-07T14:08:06;0.70;99.90
64855;DHT22;51321;50.428;8.378;2024-01-07T14:10:47;0.60;99.90
64855;DHT22;51321;50.428;8.378;2024-01-07T14:13:29;0.50;99.90
64855;DHT22;51321;50.428;8.378;2024-01-07T14:16:12;0.40;99.90
64855;DHT22;51321;50.428;8.378;2024-01-07T14:18:53;0.40;99.90
64855;DHT22;51321;50.428;8.378;2024-01-07T14:21:36;0.50;99.90
64855;DHT22;51321;50.428;8.378;2024-01-07T14:24:19;0.40;99.90
64855;DHT22;51321;50.428;8.378;2024-01-07T14:27:01;0.40;99.90
64855;DHT22;51321;50.428;8.378;2024-01-07T14:29:50;0.40;99.90
64855;DHT22;51321;50.428;8.378;2024-01-07T14:32:31;0.40;99.90
64855;DHT22;51321;50.428;8.378;2024-01-07T14:35:14;0.40;99.90
64855;DHT22;51321;50.428;8.378;2024-01-07T14:37:57;0.50;99.90
64855;DHT22;51321;50.428;8.378;2024-01-07T14:40:38;0.40;99.90
64855;DHT22;51321;50.428;8.378;2024-01-07T14:43:20;0.40;99.90
64855;DHT22;51321;50.428;8.378;2024-01-07T14:46:02;0.50;99.90
64855;DHT22;51321;50.428;8.378;2024-01-07T14:48:43;0.50;99.90
64855;DHT22;51321;50.428;8.378;2024-01-07T14:51:24;0.50;99.90
64855;DHT22;51321;50.428;8.378;2024-01-07T14:54:08;0.50;99.90
64855;DHT22;51321;50.428;8.378;2024-01-07T14:56:49;0.30;99.90
64855;DHT22;51321;50.428;8.378;2024-01-07T14:59:31;0.20;99.90
64855;DHT22;51321;50.428;8.378;2024-01-07T15:02:15;0.30;99.90
64855;DHT22;51321;50.428;8.378;2024-01-07T15:04:56;0.30;99.90
64855;DHT22;51321;50.428;8.378;2024-01-07T15:07:37;0.20;99.90
64855;DHT22;51321;50.428;8.378;2024-01-07T15:10:19;0.10;99.90
64855;DHT22;51321;50.428;8.378;2024-01-07T15:12:59;0.00;99.90
64855;DHT22;51321;50.428;8.378;2024-01-07T15:15:40;0.00;99.90
64855;DHT22;51321;50.428;8.378;2024-01-07T15:18:20;0.00;99.90
64855;DHT22;51321;50.428;8.378;2024-01-07T15:21:01;0.00;99.90
64855;DHT22;51321;50.428;8.378;2024-01-07T15:23:42;-0.10;99.90
64855;DHT22;51321;50.428;8.378;2024-01-07T15:26:24;-0.10;99.90
64855;DHT22;51321;50.428;8.378;2024-01-07T15:29:07;-0.10;99.90
64855;DHT22;51321;50.428;8.378;2024-01-07T15:31:50;-0.20;99.90
64855;DHT22;51321;50.428;8.378;2024-01-07T15:34:32;-0.30;99.90
64855;DHT22;51321;50.428;8.378;2024-01-07T15:37:13;-0.30;99.90
64855;DHT22;51321;50.428;8.378;2024-01-07T15:39:55;-0.40;99.90
64855;DHT22;51321;50.428;8.378;2024-01-07T15:42:39;-0.40;99.90
64855;DHT22;51321;50.428;8.378;2024-01-07T15:45:19;-0.40;99.90
64855;DHT22;51321;50.428;8.378;2024-01-07T15:48:00;-0.30;99.90
64855;DHT22;51321;50.428;8.378;2024-01-07T15:50:41;-0.40;99.90
64855;DHT22;51321;50.428;8.378;2024-01-07T15:53:23;-0.40;99.90
64855;DHT22;51321;50.428;8.378;2024-01-07T15:56:10;-0.40;99.90
64855;DHT22;51321;50.428;8.378;2024-01-07T15:58:53;-0.40;99.90
64855;DHT22;51321;50.428;8.378;2024-01-07T16:01:34;-0.40;99.90
64855;DHT22;51321;50.428;8.378;2024-01-07T16:04:16;-0.50;99.90
64855;DHT22;51321;50.428;8.378;2024-01-07T16:06:58;-0.50;99.90
64855;DHT22;51321;50.428;8.378;2024-01-07T16:09:39;-0.50;99.90
64855;DHT22;51321;50.428;8.378;2024-01-07T16:12:21;-0.50;99.90
64855;DHT22;51321;50.428;8.378;2024-01-07T16:15:04;-0.50;99.90
64855;DHT22;51321;50.428;8.378;2024-01-07T16:17:48;-0.50;99.90
64855;DHT22;51321;50.428;8.378;2024-01-07T16:20:30;-0.50;99.90
64855;DHT22;51321;50.428;8.378;2024-01-07T16:23:12;-0.50;99.90
64855;DHT22;51321;50.428;8.378;2024-01-07T16:25:56;-0.60;99.90
64855;DHT22;51321;50.428;8.378;2024-01-07T16:28:37;-0.60;99.90
64855;DHT22;51321;50.428;8.378;2024-01-07T16:31:21;-0.60;99.90
64855;DHT22;51321;50.428;8.378;2024-01-07T16:34:01;-0.70;99.90
64855;DHT22;51321;50.428;8.378;2024-01-07T16:36:43;-0.60;99.90
64855;DHT22;51321;50.428;8.378;2024-01-07T16:39:32;-0.60;99.90
64855;DHT22;51321;50.428;8.378;2024-01-07T16:42:13;-0.60;99.90
64855;DHT22;51321;50.428;8.378;2024-01-07T16:44:55;-0.70;99.90
64855;DHT22;51321;50.428;8.378;2024-01-07T16:47:41;-0.70;99.90
64855;DHT22;51321;50.428;8.378;2024-01-07T16:50:21;-0.70;99.90
64855;DHT22;51321;50.428;8.378;2024-01-07T16:53:02;-0.70;99.90
64855;DHT22;51321;50.428;8.378;2024-01-07T16:55:44;-0.60;99.90
64855;DHT22;51321;50.428;8.378;2024-01-07T16:58:25;-0.60;99.90
64855;DHT22;51321;50.428;8.378;2024-01-07T17:01:06;-0.60;99.90
64855;DHT22;51321;50.428;8.378;2024-01-07T17:03:48;-0.70;99.90
64855;DHT22;51321;50.428;8.378;2024-01-07T17:06:30;-0.60;99.90
64855;DHT22;51321;50.428;8.378;2024-01-07T17:09:11;-0.60;99.90
64855;DHT22;51321;50.428;8.378;2024-01-07T17:11:52;-0.60;99.90
64855;DHT22;51321;50.428;8.378;2024-01-07T17:14:34;-0.60;99.90
64855;DHT22;51321;50.428;8.378;2024-01-07T17:17:15;-0.60;99.90
64855;DHT22;51321;50.428;8.378;2024-01-07T17:19:58;-0.60;99.90